Ashiya Air Base, Japan

6:01 PM JST on July 25, 2014 (GMT +0900)
Akama Station(JR KYUSHU RAILWAY) (IFUKUOKA3) Elev 33 ft | 33.80 °N, 130.57 °E | Change Station

Current weather conditions updated 4 seconds ago

Scattered Clouds
Scattered Clouds
91.0 °F
Feels Like 110 °F
N
5.8
Wind Variable Wind from SW
Gusts 5.8 mph

Tomorrow is forecast to be Cooler than today. Thunderstorms developing late tomorrow night.

Today
High -- | Low -- °F
--% Chance of Precip.
Yesterday
High -- | Low -- °F
Precip. -- in
5:23 AM 7:23 PM
Waning Crescent, 2% visible
Pressure 29.80 in
Visibility 6.2 miles
Clouds Few 2500 ft
Scattered Clouds 4000 ft
Heat Index 110 °F
Dew Point 80 °F
Humidity 71%
Rainfall 0.00 in
Snow Depth Not available.
UV 1 out of 12
Pollen Not available.
Air Quality Not available.
Flu Activity Not available.
METAR RJFF 250830Z 19009KT 9999 FEW025 SCT040 BKN/// 33/24 Q1009 RMK 1CU025 3CU040 A2982

More Conditions Fewer Conditions

Pressure 29.80 in
Visibility 6.2 miles
Clouds Few 2500 ft
Scattered Clouds 4000 ft
Heat Index 110 °F
Dew Point 80 °F
Humidity 71%
Rainfall 0.00 in
Snow Depth Not available.
UV 1 out of 12
Pollen Not available.
Air Quality Not available.
Flu Activity Not available.
METAR RJFF 250830Z 19009KT 9999 FEW025 SCT040 BKN/// 33/24 Q1009 RMK 1CU025 3CU040 A2982

More Conditions Fewer Conditions

10-Day Weather Forecast

Almanac

Astronomy

Jul. 25, 2014 Rise Set
Actual Time 5:23 AM JST 7:23 PM JST
Civil Twilight 4:55 AM JST 7:51 PM JST
Nautical Twilight 4:22 AM JST 8:25 PM JST
Astronomical Twilight 3:45 AM JST 9:01 PM JST
Moon 3:50 AM JST 5:57 PM JST
Length of Visible Light 14h 55m
Length of Day
13h 59m
Tomorrow will be 1m 23s shorter.
Waning Crescent, 2% of the Moon is Illuminated
Today
Waning Crescent
Jul 26
New
Aug 3
First Quarter
Aug 10
Full
Aug 17
Last Quarter

Yesterday's Extremes

Country Highs Country Lows

Community

WunderPhotos

Upload Photos

1,737,276 photos uploaded!

Nearby

Snow Depth

Not available.

Earthquake Activity

City Distance Mag. Time & Date
No recent earthquake activity has been reported nearby.
Minimum magnitude displayed is 2.5.

Coastal Water Temperatures

Place Temperature
No Stations Reporting

Nearby Weather Stations

Station Location Temp. Heat Index Dew Point Humidity Wind Precip. Elev Updated Type
Akama Station(JR KYUSHU RAILWAY), Munakata 91.0 °F 110 °F 80 °F 71% SW  at  5.8 mph 0.00 in / hr 33 ft 6:01 PM JST Rapid Fire

Show More Stations Show Fewer Stations